EmailTwitter


Surface observations / France / LFBP (07610)

Regions: Quebec | Canada | USA | Europe | France | UK | Elsewhere
Station
Display
Info & Location for LFBP (07610) | Help decoding METAR

Weather Conditions observed on 2018/11/14 at 15:00 UTC at PONT-LONG-UZEIN/, FR (LFBP)

Temperature: 20.0 Celsius.

Dewpoint: 11.0 Celsius.

Relative Humidity: 56%

Winds: Northeast at 7 km/h or 4 knots.

Mean Sea level Pressure: 102.00 kilopascals.

Coded METAR:

LFBP 141500Z AUTO 04004KT 010V070 CAVOK 20/11 Q1020 NOSIG=